createdAt,value
2018-06-28T00:00:31.069Z,16.50
2018-06-28T00:01:04.155Z,16.50
2018-06-28T00:01:37.185Z,16.50
2018-06-28T00:02:10.338Z,16.40
2018-06-28T00:02:44.131Z,16.50
2018-06-28T00:03:17.102Z,16.50
2018-06-28T00:03:50.087Z,16.50
2018-06-28T00:04:26.817Z,16.50
2018-06-28T00:05:16.567Z,16.40
2018-06-28T00:05:52.193Z,16.40
2018-06-28T00:06:25.775Z,16.50
2018-06-28T00:06:59.655Z,16.50
2018-06-28T00:07:32.777Z,16.50
2018-06-28T00:08:07.600Z,16.40
2018-06-28T00:08:47.845Z,16.40
2018-06-28T00:09:20.835Z,16.40
2018-06-28T00:09:53.905Z,16.50
2018-06-28T00:10:35.879Z,16.40
2018-06-28T00:11:10.782Z,16.50
2018-06-28T00:11:43.839Z,16.50
2018-06-28T00:12:17.465Z,16.40
2018-06-28T00:12:52.061Z,16.40
2018-06-28T00:13:27.739Z,16.40
2018-06-28T00:14:00.809Z,16.40
2018-06-28T00:14:33.810Z,16.40
2018-06-28T00:15:07.041Z,16.40
2018-06-28T00:15:40.069Z,16.50
2018-06-28T00:16:13.131Z,16.40
2018-06-28T00:16:46.213Z,16.40
2018-06-28T00:17:19.247Z,16.50
2018-06-28T00:17:52.277Z,16.40
2018-06-28T00:18:25.336Z,16.40
2018-06-28T00:18:58.377Z,16.40
2018-06-28T00:19:31.402Z,16.40
2018-06-28T00:20:06.663Z,16.30
2018-06-28T00:20:50.667Z,16.30
2018-06-28T00:21:26.473Z,16.40
2018-06-28T00:22:04.413Z,16.40
2018-06-28T00:22:38.473Z,16.40
2018-06-28T00:25:50.502Z,16.30
2018-06-28T00:26:32.264Z,16.30
2018-06-28T00:27:09.731Z,16.30
2018-06-28T00:27:53.295Z,16.20
2018-06-28T00:28:26.351Z,16.30
2018-06-28T00:28:59.383Z,16.30
2018-06-28T00:29:33.633Z,16.20
2018-06-28T00:30:07.591Z,16.30
2018-06-28T00:30:41.202Z,16.30
2018-06-28T00:31:15.195Z,16.20
2018-06-28T00:31:48.253Z,16.20
2018-06-28T00:32:21.259Z,16.20
2018-06-28T00:32:54.842Z,16.20
2018-06-28T00:33:28.861Z,16.30
2018-06-28T00:34:01.909Z,16.20
2018-06-28T00:34:34.923Z,16.20
2018-06-28T00:35:07.971Z,16.20
2018-06-28T00:35:40.973Z,16.10
2018-06-28T00:36:13.937Z,16.20
2018-06-28T00:36:46.975Z,16.20
2018-06-28T00:37:19.981Z,16.20
2018-06-28T00:37:52.991Z,16.10
2018-06-28T00:38:26.784Z,16.20
2018-06-28T00:38:59.831Z,16.10
2018-06-28T00:39:32.843Z,16.20
2018-06-28T00:40:05.841Z,16.20
2018-06-28T00:40:38.855Z,16.10
2018-06-28T00:41:11.855Z,16.10
2018-06-28T00:41:45.131Z,16.10
2018-06-28T00:42:18.409Z,16.10
2018-06-28T00:42:51.491Z,16.10
2018-06-28T00:43:24.491Z,16.00
2018-06-28T00:43:57.495Z,16.10
2018-06-28T00:44:30.539Z,16.20
2018-06-28T00:45:03.619Z,16.10
2018-06-28T00:45:36.619Z,16.00
2018-06-28T00:46:09.739Z,16.10
2018-06-28T00:46:42.767Z,16.10
2018-06-28T00:47:15.755Z,16.10
2018-06-28T00:47:48.779Z,16.00
2018-06-28T00:48:21.789Z,16.00
2018-06-28T00:48:57.580Z,16.10
2018-06-28T00:49:30.629Z,16.10
2018-06-28T00:50:03.811Z,16.00
2018-06-28T00:50:36.841Z,16.00
2018-06-28T00:51:11.311Z,16.10
2018-06-28T00:51:45.221Z,16.00
2018-06-28T00:52:18.269Z,16.00
2018-06-28T00:52:52.029Z,16.10
2018-06-28T00:53:25.697Z,16.00
2018-06-28T00:53:58.701Z,16.00
2018-06-28T00:54:31.703Z,16.00
2018-06-28T00:55:05.636Z,16.10
2018-06-28T00:55:41.880Z,16.10
2018-06-28T00:56:15.475Z,16.00
2018-06-28T00:56:52.469Z,16.00
2018-06-28T00:57:31.451Z,16.00
2018-06-28T00:58:09.677Z,16.00
2018-06-28T00:58:48.835Z,16.00
2018-06-28T00:59:22.861Z,16.00
2018-06-28T01:00:02.565Z,16.00
2018-06-28T01:00:35.612Z,15.90
2018-06-28T01:01:08.637Z,15.90
2018-06-28T01:01:41.734Z,16.10
2018-06-28T01:02:16.838Z,16.00
2018-06-28T01:02:51.035Z,16.00
2018-06-28T01:03:25.262Z,16.00
2018-06-28T01:04:53.723Z,15.90
2018-06-28T01:05:31.094Z,16.00
2018-06-28T01:06:04.141Z,15.90
2018-06-28T01:06:37.208Z,16.00
2018-06-28T01:07:10.313Z,15.90
2018-06-28T01:07:43.321Z,16.00
2018-06-28T01:08:16.332Z,15.90
2018-06-28T01:08:49.421Z,15.90
2018-06-28T01:09:22.490Z,15.90
2018-06-28T01:09:55.507Z,15.90
2018-06-28T01:10:28.535Z,15.90
2018-06-28T01:11:01.603Z,15.90
2018-06-28T01:11:34.637Z,15.90
2018-06-28T01:12:07.760Z,15.80
2018-06-28T01:12:40.782Z,15.90
2018-06-28T01:13:14.498Z,15.90
2018-06-28T01:13:47.515Z,15.80
2018-06-28T01:14:21.010Z,15.80
2018-06-28T01:15:05.017Z,15.90
2018-06-28T01:15:48.731Z,15.80
2018-06-28T01:16:25.968Z,15.80
2018-06-28T01:17:14.038Z,15.80
2018-06-28T01:27:40.121Z,15.80
2018-06-28T01:28:59.419Z,15.70
2018-06-28T01:29:32.431Z,15.60
2018-06-28T01:30:06.736Z,15.70
2018-06-28T01:30:39.823Z,15.60
2018-06-28T01:31:12.941Z,15.60
2018-06-28T01:31:46.803Z,15.60
2018-06-28T01:32:22.770Z,15.60
2018-06-28T01:32:55.804Z,15.60
2018-06-28T01:33:29.555Z,15.60
2018-06-28T01:34:03.171Z,15.60
2018-06-28T01:34:36.989Z,15.50
2018-06-28T01:35:10.039Z,15.50
2018-06-28T01:35:43.023Z,15.50
2018-06-28T01:36:16.040Z,15.50
2018-06-28T01:36:49.064Z,15.50
2018-06-28T01:37:22.095Z,15.60
2018-06-28T01:37:55.099Z,15.50
2018-06-28T01:38:28.153Z,15.60
2018-06-28T01:39:01.909Z,15.50
2018-06-28T01:39:34.977Z,15.50
2018-06-28T01:40:08.070Z,15.50
2018-06-28T01:40:46.455Z,15.50
2018-06-28T01:41:20.127Z,15.50
2018-06-28T01:42:21.403Z,15.50
2018-06-28T01:43:11.663Z,15.60
2018-06-28T01:43:46.291Z,15.50
2018-06-28T01:44:20.667Z,15.50
2018-06-28T01:57:58.804Z,15.50
2018-06-28T01:58:31.890Z,15.40
2018-06-28T01:59:04.916Z,15.30
2018-06-28T01:59:37.949Z,15.30
2018-06-28T02:00:10.979Z,15.30
2018-06-28T02:00:44.099Z,15.30
2018-06-28T02:01:17.141Z,15.20
2018-06-28T02:01:50.535Z,15.30
2018-06-28T02:02:24.323Z,15.20
2018-06-28T02:02:57.383Z,15.30
2018-06-28T02:03:30.754Z,15.30
2018-06-28T02:04:03.919Z,15.20
2018-06-28T02:04:36.908Z,15.20
2018-06-28T02:05:09.957Z,15.30
2018-06-28T02:05:43.771Z,15.30
2018-06-28T02:06:22.767Z,15.20
2018-06-28T02:06:55.787Z,15.30
2018-06-28T02:07:29.954Z,15.20
2018-06-28T02:08:03.011Z,15.30
2018-06-28T02:08:36.018Z,15.30
2018-06-28T02:09:09.974Z,15.30
2018-06-28T02:09:42.995Z,15.20
2018-06-28T02:10:16.027Z,15.30
2018-06-28T02:10:49.105Z,15.30
2018-06-28T02:11:23.347Z,15.00
2018-06-28T02:11:56.386Z,15.20
2018-06-28T02:12:29.456Z,15.20
2018-06-28T02:13:03.157Z,15.20
2018-06-28T02:13:36.161Z,15.30
2018-06-28T02:14:09.157Z,15.30
2018-06-28T02:14:42.472Z,15.20
2018-06-28T02:15:15.874Z,15.30
2018-06-28T02:15:49.653Z,15.30
2018-06-28T02:16:22.716Z,15.30
2018-06-28T02:16:59.424Z,15.30
2018-06-28T02:17:32.710Z,15.20
2018-06-28T02:18:06.750Z,15.20
2018-06-28T02:18:39.770Z,15.20
2018-06-28T02:19:15.572Z,15.30
2018-06-28T02:19:52.638Z,15.30
2018-06-28T02:20:35.171Z,15.30
2018-06-28T02:21:10.975Z,15.20
2018-06-28T02:21:44.576Z,15.30
2018-06-28T02:22:17.582Z,15.30
2018-06-28T02:22:52.059Z,15.30
2018-06-28T02:23:34.108Z,15.20
2018-06-28T02:24:15.623Z,15.30
2018-06-28T02:24:48.666Z,15.30
2018-06-28T02:25:21.653Z,15.30
2018-06-28T02:25:55.172Z,15.20
2018-06-28T02:26:28.146Z,15.30
2018-06-28T02:27:01.100Z,15.20
2018-06-28T02:27:34.124Z,15.20
2018-06-28T02:28:07.160Z,15.20
2018-06-28T02:28:41.333Z,15.30
2018-06-28T02:29:14.686Z,15.30
2018-06-28T02:29:47.732Z,15.30
2018-06-28T02:30:20.738Z,15.20
2018-06-28T02:30:53.747Z,15.30
2018-06-28T02:31:26.782Z,15.30
2018-06-28T02:31:59.783Z,15.20
2018-06-28T02:32:32.779Z,15.30
2018-06-28T02:33:05.807Z,15.20
2018-06-28T02:33:38.891Z,15.20
2018-06-28T02:34:11.887Z,15.20
2018-06-28T02:34:49.096Z,15.20
2018-06-28T02:35:37.463Z,15.30
2018-06-28T02:36:20.002Z,15.20
2018-06-28T02:36:54.014Z,15.20
2018-06-28T02:37:29.548Z,15.20
2018-06-28T02:38:08.051Z,15.20
2018-06-28T02:38:46.582Z,15.20
2018-06-28T02:39:21.727Z,15.10
2018-06-28T02:39:55.719Z,15.20
2018-06-28T02:40:28.805Z,15.20
2018-06-28T02:41:01.833Z,15.20
2018-06-28T02:41:34.861Z,15.20
2018-06-28T02:42:08.221Z,15.20
2018-06-28T02:42:41.253Z,15.20
2018-06-28T02:43:14.275Z,15.10
2018-06-28T02:43:47.287Z,15.20
2018-06-28T02:44:20.981Z,15.20
2018-06-28T02:44:54.133Z,15.40
2018-06-28T02:45:27.498Z,15.20
2018-06-28T02:46:00.523Z,15.10
2018-06-28T02:46:33.558Z,15.20
2018-06-28T02:47:06.622Z,15.20
2018-06-28T02:47:39.669Z,15.20
2018-06-28T02:48:12.745Z,15.20
2018-06-28T02:48:45.723Z,15.20
2018-06-28T02:49:18.723Z,15.20
2018-06-28T02:49:51.753Z,15.20
2018-06-28T02:50:28.310Z,15.20
2018-06-28T02:51:11.339Z,15.10
2018-06-28T02:51:49.950Z,15.20
2018-06-28T02:52:27.327Z,15.10
2018-06-28T02:53:00.327Z,15.20
2018-06-28T02:53:34.563Z,15.20
2018-06-28T02:54:08.748Z,15.30
2018-06-28T02:54:41.765Z,15.20
2018-06-28T02:55:14.795Z,15.30
2018-06-28T02:55:47.783Z,15.30
2018-06-28T02:56:20.833Z,15.20
2018-06-28T02:56:53.865Z,15.20
2018-06-28T02:57:27.109Z,15.10
2018-06-28T02:58:00.727Z,15.20
2018-06-28T02:58:35.237Z,15.20
2018-06-28T02:59:08.935Z,15.10
2018-06-28T02:59:46.848Z,15.10
2018-06-28T03:00:19.965Z,15.10
2018-06-28T03:00:52.965Z,15.20
2018-06-28T03:01:25.994Z,15.10
2018-06-28T03:01:59.019Z,15.20
2018-06-28T03:02:35.420Z,15.20
2018-06-28T03:03:14.823Z,15.20
2018-06-28T03:04:01.695Z,15.20
2018-06-28T03:04:41.411Z,15.10
2018-06-28T03:05:14.743Z,15.20
2018-06-28T03:05:47.779Z,15.10
2018-06-28T03:06:23.047Z,15.20
2018-06-28T03:07:00.125Z,15.10
2018-06-28T03:07:34.141Z,15.10
2018-06-28T03:08:07.170Z,15.20
2018-06-28T03:08:40.165Z,15.10
2018-06-28T03:09:13.189Z,15.10
2018-06-28T03:09:46.955Z,15.20
2018-06-28T03:10:19.995Z,15.20
2018-06-28T03:10:52.989Z,15.20
2018-06-28T03:11:26.009Z,15.10
2018-06-28T03:11:59.061Z,15.20
2018-06-28T03:12:32.059Z,15.20
2018-06-28T03:13:05.115Z,15.20
2018-06-28T03:13:38.732Z,15.20
2018-06-28T03:14:11.737Z,15.10
2018-06-28T03:14:44.771Z,15.20
2018-06-28T03:15:17.811Z,15.10
2018-06-28T03:15:50.807Z,15.10
2018-06-28T03:16:23.859Z,15.20
2018-06-28T03:16:56.951Z,15.10
2018-06-28T03:17:34.503Z,15.20
2018-06-28T03:18:13.181Z,15.20
2018-06-28T03:18:50.785Z,15.20
2018-06-28T03:19:24.331Z,15.10
2018-06-28T03:19:58.173Z,15.10
2018-06-28T03:20:32.047Z,15.10
2018-06-28T03:21:06.581Z,15.10
2018-06-28T03:21:47.389Z,15.20
2018-06-28T03:22:20.971Z,15.20
2018-06-28T03:22:54.011Z,15.10
2018-06-28T03:23:26.991Z,15.10
2018-06-28T03:24:00.031Z,15.20
2018-06-28T03:24:33.011Z,15.10
2018-06-28T03:25:05.983Z,15.10
2018-06-28T03:25:39.783Z,15.10
2018-06-28T03:26:12.817Z,15.10
2018-06-28T03:26:46.047Z,15.20
2018-06-28T03:27:19.087Z,15.10
2018-06-28T03:27:52.581Z,15.20
2018-06-28T03:28:25.621Z,15.20
2018-06-28T03:28:58.613Z,15.10
2018-06-28T03:29:31.583Z,15.30
2018-06-28T03:30:04.949Z,15.20
2018-06-28T03:30:37.942Z,15.20
2018-06-28T03:31:10.937Z,15.10
2018-06-28T03:31:44.617Z,15.30
2018-06-28T03:32:19.255Z,15.20
2018-06-28T03:32:52.299Z,15.20
2018-06-28T03:33:25.313Z,15.20
2018-06-28T03:33:58.977Z,15.20
2018-06-28T03:34:32.009Z,15.30
2018-06-28T03:35:05.131Z,15.30
2018-06-28T03:35:38.105Z,15.30
2018-06-28T03:36:11.123Z,15.20
2018-06-28T03:36:44.125Z,15.30
2018-06-28T03:37:17.193Z,15.20
2018-06-28T03:37:50.306Z,15.30
2018-06-28T03:38:23.220Z,15.30
2018-06-28T03:38:56.207Z,15.30
2018-06-28T03:39:29.214Z,15.30
2018-06-28T03:40:02.283Z,15.30
2018-06-28T03:40:35.308Z,15.40
2018-06-28T03:41:08.345Z,15.40
2018-06-28T03:41:41.841Z,15.40
2018-06-28T03:42:14.835Z,15.40
2018-06-28T03:42:47.803Z,15.40
2018-06-28T03:43:20.835Z,15.30
2018-06-28T03:43:53.856Z,15.40
2018-06-28T03:44:26.855Z,15.40
2018-06-28T03:44:59.857Z,15.30
2018-06-28T03:45:32.826Z,15.40
2018-06-28T03:46:05.835Z,15.30
2018-06-28T03:46:38.869Z,15.40
2018-06-28T03:47:13.443Z,15.40
2018-06-28T03:47:46.433Z,15.50
2018-06-28T03:48:19.435Z,15.50
2018-06-28T03:48:52.835Z,15.40
2018-06-28T03:49:25.831Z,15.40
2018-06-28T03:49:58.819Z,15.50
2018-06-28T03:50:32.477Z,15.50
2018-06-28T03:51:05.751Z,15.40
2018-06-28T03:51:38.811Z,15.40
2018-06-28T03:52:12.626Z,15.50
2018-06-28T03:52:45.651Z,15.40
2018-06-28T03:53:19.285Z,15.50
2018-06-28T03:53:52.291Z,15.50
2018-06-28T03:54:25.338Z,15.50
2018-06-28T03:54:58.409Z,15.50
2018-06-28T03:55:32.395Z,15.50
2018-06-28T03:56:05.463Z,15.50
2018-06-28T03:56:38.567Z,15.50
2018-06-28T03:57:11.589Z,15.40
2018-06-28T03:57:45.463Z,15.60
2018-06-28T03:58:18.461Z,15.60
2018-06-28T03:58:51.437Z,15.50
2018-06-28T03:59:25.105Z,15.60
2018-06-28T03:59:58.417Z,15.60
2018-06-28T04:00:31.405Z,15.60
2018-06-28T04:01:04.606Z,15.60
2018-06-28T04:01:38.151Z,15.70
2018-06-28T04:02:11.245Z,15.60
2018-06-28T04:02:45.101Z,15.70
2018-06-28T04:03:18.132Z,15.70
2018-06-28T04:03:51.181Z,15.70
2018-06-28T04:04:24.281Z,15.70
2018-06-28T04:04:57.255Z,15.70
2018-06-28T04:05:30.234Z,15.70
2018-06-28T04:06:03.267Z,15.70
2018-06-28T04:06:36.395Z,15.70
2018-06-28T04:07:09.346Z,15.70
2018-06-28T04:07:42.394Z,15.80
2018-06-28T04:08:15.435Z,15.80
2018-06-28T04:08:48.455Z,15.80
2018-06-28T04:09:21.494Z,15.80
2018-06-28T04:09:54.486Z,15.80
2018-06-28T04:10:27.485Z,15.80
2018-06-28T04:11:00.603Z,15.90
2018-06-28T04:11:33.667Z,15.90
2018-06-28T04:12:06.703Z,15.80
2018-06-28T04:12:39.720Z,15.80
2018-06-28T04:13:14.181Z,15.80
2018-06-28T04:13:47.212Z,15.90
2018-06-28T04:14:20.278Z,15.90
2018-06-28T04:14:53.926Z,15.90
2018-06-28T04:15:28.341Z,15.90
2018-06-28T04:16:01.395Z,15.90
2018-06-28T04:16:34.782Z,15.90
2018-06-28T04:17:07.731Z,15.90
2018-06-28T04:17:41.439Z,15.90
2018-06-28T04:18:14.455Z,15.90
2018-06-28T04:18:47.484Z,15.90
2018-06-28T04:19:20.511Z,16.00
2018-06-28T04:19:53.495Z,16.00
2018-06-28T04:20:26.531Z,16.00
2018-06-28T04:20:59.565Z,16.00
2018-06-28T04:21:33.589Z,16.00
2018-06-28T04:22:08.159Z,16.00
2018-06-28T04:22:41.739Z,16.10
2018-06-28T04:23:14.767Z,16.00
2018-06-28T04:23:47.821Z,16.10
2018-06-28T04:24:20.830Z,16.10
2018-06-28T04:24:53.811Z,16.20
2018-06-28T04:25:26.803Z,16.20
2018-06-28T04:26:00.258Z,16.10
2018-06-28T04:26:33.795Z,16.20
2018-06-28T04:27:06.791Z,16.20
2018-06-28T04:27:39.855Z,16.20
2018-06-28T04:28:12.869Z,16.30
2018-06-28T04:28:45.903Z,16.30
2018-06-28T04:29:18.904Z,16.20
2018-06-28T04:29:52.303Z,16.20
2018-06-28T04:30:25.351Z,16.30
2018-06-28T04:30:58.349Z,16.30
2018-06-28T04:31:31.355Z,16.30
2018-06-28T04:32:04.921Z,16.30
2018-06-28T04:32:37.931Z,16.30
2018-06-28T04:33:10.896Z,16.30
2018-06-28T04:33:43.921Z,16.40
2018-06-28T04:34:16.908Z,16.40
2018-06-28T04:34:50.807Z,16.40
2018-06-28T04:35:23.808Z,16.40
2018-06-28T04:35:56.843Z,16.40
2018-06-28T04:36:29.835Z,16.50
2018-06-28T04:37:02.823Z,16.50
2018-06-28T04:37:35.862Z,16.50
2018-06-28T04:38:08.863Z,16.40
2018-06-28T04:38:41.856Z,16.60
2018-06-28T04:39:14.910Z,16.50
2018-06-28T04:39:47.913Z,16.50
2018-06-28T04:40:20.910Z,16.60
2018-06-28T04:40:53.955Z,16.60
2018-06-28T04:41:26.941Z,16.60
2018-06-28T04:41:59.932Z,16.60
2018-06-28T04:42:32.947Z,16.60
2018-06-28T04:43:05.946Z,16.60
2018-06-28T04:43:38.955Z,16.60
2018-06-28T04:44:12.977Z,16.60
2018-06-28T04:44:45.999Z,16.70
2018-06-28T04:45:19.040Z,16.60
2018-06-28T04:45:52.145Z,16.80
2018-06-28T04:46:25.121Z,16.80
2018-06-28T04:46:58.107Z,16.80
2018-06-28T04:47:31.119Z,16.80
2018-06-28T04:48:04.553Z,16.70
2018-06-28T04:48:37.567Z,16.80
2018-06-28T04:49:10.573Z,16.80
2018-06-28T04:49:43.583Z,16.90
2018-06-28T04:50:21.583Z,16.90
2018-06-28T04:50:54.545Z,16.90
2018-06-28T04:51:27.514Z,16.90
2018-06-28T04:52:00.507Z,17.10
2018-06-28T04:52:33.575Z,17.00
2018-06-28T04:53:06.634Z,17.00
2018-06-28T04:53:39.661Z,17.10
2018-06-28T04:54:12.666Z,17.20
2018-06-28T04:54:45.649Z,17.10
2018-06-28T04:55:19.385Z,17.10
2018-06-28T04:55:53.246Z,17.10
2018-06-28T04:56:26.317Z,17.10
2018-06-28T04:56:59.350Z,17.20
2018-06-28T04:57:32.364Z,17.20
2018-06-28T04:58:06.118Z,17.20
2018-06-28T04:58:39.154Z,17.30
2018-06-28T04:59:12.138Z,17.30
2018-06-28T04:59:45.108Z,17.30
2018-06-28T05:00:18.209Z,17.40
2018-06-28T05:00:51.189Z,17.30
2018-06-28T05:01:24.397Z,17.40
2018-06-28T05:01:57.245Z,17.40
2018-06-28T05:02:30.269Z,17.50
2018-06-28T05:03:03.851Z,17.40
2018-06-28T05:03:36.894Z,17.50
2018-06-28T05:04:09.905Z,17.60
2018-06-28T05:04:42.924Z,17.60
2018-06-28T05:05:15.971Z,17.60
2018-06-28T05:05:48.981Z,17.70
2018-06-28T05:06:21.976Z,17.80
2018-06-28T05:06:55.800Z,17.70
2018-06-28T05:07:28.766Z,17.80
2018-06-28T05:08:01.787Z,17.80
2018-06-28T05:08:34.841Z,17.90
2018-06-28T05:09:08.397Z,18.00
2018-06-28T05:09:41.442Z,18.00
2018-06-28T05:10:14.558Z,17.90
2018-06-28T05:10:47.590Z,17.90
2018-06-28T05:11:20.610Z,17.90
2018-06-28T05:11:53.617Z,18.00
2018-06-28T05:12:26.644Z,18.00
2018-06-28T05:12:59.662Z,18.10
2018-06-28T05:13:32.670Z,18.00
2018-06-28T05:23:50.732Z,18.10
2018-06-28T05:24:23.747Z,18.70
2018-06-28T05:24:56.751Z,18.70
2018-06-28T05:25:29.802Z,18.70
2018-06-28T05:26:02.872Z,18.70
2018-06-28T05:26:35.914Z,18.70
2018-06-28T05:27:08.940Z,18.80
2018-06-28T05:27:41.904Z,18.70
2018-06-28T05:28:14.906Z,18.80
2018-06-28T05:28:47.904Z,18.80
2018-06-28T05:29:20.926Z,18.80
2018-06-28T05:29:54.640Z,18.80
2018-06-28T05:30:27.647Z,18.80
2018-06-28T05:31:00.625Z,18.90
2018-06-28T05:31:33.630Z,19.00
2018-06-28T05:32:06.653Z,19.10
2018-06-28T05:32:39.646Z,19.20
2018-06-28T05:33:12.693Z,19.10
2018-06-28T05:33:45.700Z,19.20
2018-06-28T05:34:18.704Z,19.20
2018-06-28T05:34:51.716Z,19.30
2018-06-28T05:35:24.764Z,19.20
2018-06-28T05:35:58.079Z,19.40
2018-06-28T05:36:31.092Z,19.30
2018-06-28T05:39:45.390Z,19.20
2018-06-28T05:40:18.406Z,19.60
2018-06-28T05:40:51.444Z,19.70
2018-06-28T05:41:24.496Z,19.70
2018-06-28T05:41:57.510Z,19.50
2018-06-28T05:42:30.522Z,19.70
2018-06-28T05:43:03.526Z,19.70
2018-06-28T05:43:36.500Z,19.70
2018-06-28T05:44:09.556Z,19.90
2018-06-28T05:44:42.594Z,19.90
2018-06-28T05:45:15.604Z,19.90
2018-06-28T05:45:48.640Z,19.90
2018-06-28T05:46:21.674Z,19.90
2018-06-28T05:46:54.668Z,19.90
2018-06-28T05:47:27.702Z,20.00
2018-06-28T05:48:00.748Z,20.00
2018-06-28T05:48:33.774Z,20.00
2018-06-28T05:49:06.795Z,20.10
2018-06-28T05:49:39.810Z,20.10
2018-06-28T05:50:12.824Z,20.30
2018-06-28T05:50:45.844Z,20.30
2018-06-28T05:51:19.350Z,20.40
2018-06-28T05:51:52.412Z,20.30
2018-06-28T05:52:25.786Z,20.30
2018-06-28T05:52:58.814Z,20.30
2018-06-28T05:53:31.824Z,20.30
2018-06-28T05:54:04.923Z,20.30
2018-06-28T05:54:37.910Z,20.40
2018-06-28T05:55:10.947Z,20.30
2018-06-28T05:55:43.958Z,20.30
2018-06-28T05:56:16.986Z,20.40
2018-06-28T05:56:50.008Z,20.40
2018-06-28T05:57:23.034Z,20.40
2018-06-28T05:57:56.115Z,20.50
2018-06-28T05:58:29.135Z,20.50
2018-06-28T05:59:02.146Z,20.40
2018-06-28T05:59:35.132Z,20.40
2018-06-28T06:00:08.224Z,20.50
2018-06-28T06:00:41.242Z,20.50
2018-06-28T06:01:14.291Z,20.50
2018-06-28T06:01:47.289Z,20.50
2018-06-28T06:02:20.299Z,20.40
2018-06-28T06:02:53.330Z,20.60
2018-06-28T06:03:26.329Z,20.60
2018-06-28T06:03:59.363Z,20.60
2018-06-28T06:04:32.379Z,20.70
2018-06-28T06:05:05.538Z,20.80
2018-06-28T06:05:38.571Z,20.80
2018-06-28T06:06:12.197Z,20.90
2018-06-28T06:06:45.246Z,21.00
2018-06-28T06:07:18.267Z,21.00
2018-06-28T06:07:51.295Z,21.10
2018-06-28T06:08:24.287Z,21.30
2018-06-28T06:08:57.320Z,21.40
2018-06-28T06:09:31.653Z,21.40
2018-06-28T06:10:04.759Z,21.40
2018-06-28T06:10:37.777Z,21.30
2018-06-28T06:11:10.776Z,21.50
2018-06-28T06:11:43.862Z,21.40
2018-06-28T06:12:16.837Z,21.40
2018-06-28T06:12:49.857Z,21.60
2018-06-28T06:13:22.867Z,21.60
2018-06-28T06:13:55.887Z,21.80
2018-06-28T06:14:28.885Z,22.00
2018-06-28T06:15:01.886Z,22.20
2018-06-28T06:15:34.919Z,21.90
2018-06-28T06:16:07.904Z,21.90
2018-06-28T06:16:40.920Z,21.60
2018-06-28T06:17:13.977Z,21.80
2018-06-28T06:17:47.742Z,21.70
2018-06-28T06:18:20.709Z,21.70
2018-06-28T06:18:53.758Z,21.70
2018-06-28T06:19:26.919Z,21.90
2018-06-28T06:19:59.919Z,21.90
2018-06-28T06:20:32.946Z,22.00
2018-06-28T06:21:06.453Z,22.00
2018-06-28T06:21:39.447Z,22.10
2018-06-28T06:22:16.179Z,22.00
2018-06-28T06:22:49.177Z,22.30
2018-06-28T06:23:22.216Z,22.50
2018-06-28T06:23:55.263Z,22.90
2018-06-28T06:24:28.519Z,23.10
2018-06-28T06:25:02.477Z,23.10
2018-06-28T06:25:35.463Z,23.20
2018-06-28T06:26:08.451Z,23.20
2018-06-28T06:26:42.289Z,23.30
2018-06-28T06:27:15.295Z,23.30
2018-06-28T06:27:48.313Z,23.30
2018-06-28T06:28:21.321Z,23.40
2018-06-28T06:28:54.315Z,23.50
2018-06-28T06:29:27.412Z,23.70
2018-06-28T06:30:00.398Z,23.80
2018-06-28T06:30:33.455Z,23.70
2018-06-28T06:31:06.500Z,23.70
2018-06-28T06:31:39.619Z,23.90
2018-06-28T06:32:12.635Z,23.90
2018-06-28T06:32:45.628Z,24.00
2018-06-28T06:33:18.649Z,23.90
2018-06-28T06:33:51.735Z,23.80
2018-06-28T06:34:24.743Z,23.90
2018-06-28T06:34:58.069Z,24.00
2018-06-28T06:35:31.761Z,23.40
2018-06-28T06:36:05.840Z,23.50
2018-06-28T06:36:38.848Z,23.40
2018-06-28T06:37:58.682Z,23.50
2018-06-28T06:38:31.755Z,23.60
2018-06-28T06:39:08.476Z,23.60
2018-06-28T06:39:41.472Z,23.90
2018-06-28T06:40:15.512Z,24.40
2018-06-28T06:40:48.554Z,24.90
2018-06-28T06:41:22.669Z,25.60
2018-06-28T06:41:56.482Z,26.40
2018-06-28T06:42:29.514Z,27.00
2018-06-28T06:43:02.561Z,27.30
2018-06-28T06:43:35.566Z,27.40
2018-06-28T06:44:08.606Z,27.90
2018-06-28T06:44:41.675Z,28.10
2018-06-28T06:45:15.472Z,28.60
2018-06-28T06:45:49.514Z,29.00
2018-06-28T06:46:22.543Z,29.00
2018-06-28T06:46:55.563Z,29.30
2018-06-28T06:47:28.574Z,28.70
2018-06-28T06:48:01.584Z,28.00
2018-06-28T06:48:34.627Z,27.30
2018-06-28T06:49:07.664Z,26.40
2018-06-28T06:49:40.659Z,26.00
2018-06-28T06:50:13.662Z,26.20
2018-06-28T06:50:46.710Z,26.30
2018-06-28T06:51:19.760Z,27.00
2018-06-28T06:51:53.007Z,28.00
2018-06-28T06:52:26.102Z,28.70
2018-06-28T06:52:59.145Z,29.80
2018-06-28T06:53:32.876Z,30.20
2018-06-28T06:54:05.919Z,31.00
2018-06-28T06:54:38.937Z,31.50
2018-06-28T06:55:12.008Z,32.00
2018-06-28T06:55:45.050Z,32.40
2018-06-28T06:56:18.086Z,32.80
2018-06-28T06:56:51.254Z,32.80
2018-06-28T06:57:24.281Z,32.20
2018-06-28T06:57:57.288Z,32.20
2018-06-28T06:58:30.310Z,32.10
2018-06-28T06:59:03.358Z,31.90
2018-06-28T06:59:36.719Z,32.40
2018-06-28T07:00:09.698Z,32.40
2018-06-28T07:00:42.682Z,32.20
2018-06-28T07:01:15.688Z,32.20
2018-06-28T07:01:48.734Z,32.30
2018-06-28T07:02:21.783Z,32.20
2018-06-28T07:02:54.864Z,32.80
2018-06-28T07:03:27.914Z,33.00
2018-06-28T07:04:03.294Z,33.30
2018-06-28T07:04:38.544Z,33.50
2018-06-28T07:05:12.520Z,33.70
2018-06-28T07:05:45.511Z,32.80
2018-06-28T07:06:18.496Z,33.10
2018-06-28T07:06:52.324Z,32.50
2018-06-28T07:07:26.310Z,33.00
2018-06-28T07:08:00.165Z,33.30
2018-06-28T07:08:34.306Z,33.60
2018-06-28T07:09:11.816Z,34.10
2018-06-28T07:09:44.957Z,34.70
2018-06-28T07:10:19.062Z,35.00
2018-06-28T07:10:52.343Z,34.40
2018-06-28T07:11:25.334Z,33.90
2018-06-28T07:11:58.374Z,33.40
2018-06-28T07:12:31.689Z,33.30
2018-06-28T07:13:04.743Z,33.50
2018-06-28T07:13:38.225Z,34.10
2018-06-28T07:14:11.350Z,34.10
2018-06-28T07:14:44.516Z,34.00
2018-06-28T07:15:17.540Z,33.80
2018-06-28T07:15:57.136Z,33.30
2018-06-28T07:16:32.513Z,33.00
2018-06-28T07:17:08.649Z,33.70
2018-06-28T07:17:41.829Z,34.10
2018-06-28T07:18:14.739Z,33.70
2018-06-28T07:18:47.736Z,32.40
2018-06-28T07:19:20.757Z,32.00
2018-06-28T07:19:53.806Z,33.00
2018-06-28T07:20:26.855Z,33.30
2018-06-28T07:20:59.856Z,34.00
2018-06-28T07:21:33.645Z,34.50
2018-06-28T07:22:07.448Z,35.10
2018-06-28T07:22:40.741Z,35.50
2018-06-28T07:23:13.758Z,35.50
2018-06-28T07:23:46.783Z,35.70
2018-06-28T07:24:19.773Z,36.00
2018-06-28T07:24:52.881Z,35.80
2018-06-28T07:25:25.838Z,35.10
2018-06-28T07:25:58.848Z,34.30
2018-06-28T07:26:32.632Z,34.90
2018-06-28T07:27:05.667Z,35.10
2018-06-28T07:27:40.938Z,35.50
2018-06-28T07:28:14.015Z,35.90
2018-06-28T07:28:48.023Z,36.30
2018-06-28T07:29:21.123Z,36.80
2018-06-28T07:29:54.716Z,36.70
2018-06-28T07:30:28.238Z,36.90
2018-06-28T07:31:02.015Z,37.00
2018-06-28T07:31:35.122Z,37.00
2018-06-28T07:32:08.228Z,36.90
2018-06-28T07:32:41.248Z,37.00
2018-06-28T07:33:15.252Z,36.80
2018-06-28T07:33:48.274Z,35.30
2018-06-28T07:34:21.290Z,34.40
2018-06-28T07:34:54.318Z,35.30
2018-06-28T07:35:27.424Z,34.90
2018-06-28T07:36:00.422Z,35.40
2018-06-28T07:36:33.793Z,34.90
2018-06-28T07:37:08.042Z,34.80
2018-06-28T07:37:42.285Z,35.20
2018-06-28T07:38:16.536Z,34.60
2018-06-28T07:38:49.602Z,34.60
2018-06-28T07:39:23.677Z,34.30
2018-06-28T07:39:57.859Z,34.80
2018-06-28T07:40:30.842Z,34.60
2018-06-28T07:41:03.869Z,34.30
2018-06-28T07:41:37.361Z,34.20
2018-06-28T07:42:10.386Z,34.20
2018-06-28T07:42:44.333Z,34.40
2018-06-28T07:43:17.391Z,34.00
2018-06-28T07:43:50.375Z,34.20
2018-06-28T07:44:23.413Z,33.30
2018-06-28T07:44:56.402Z,33.60
2018-06-28T07:45:29.517Z,34.10
2018-06-28T07:46:02.529Z,34.20
2018-06-28T07:46:36.985Z,34.10
2018-06-28T07:47:10.019Z,33.80
2018-06-28T07:47:43.031Z,33.80
2018-06-28T07:48:16.047Z,34.10
2018-06-28T07:48:49.807Z,34.00
2018-06-28T07:49:23.467Z,33.60
2018-06-28T07:49:56.456Z,34.00
2018-06-28T07:50:29.489Z,33.30
2018-06-28T07:51:04.375Z,32.60
2018-06-28T07:51:37.882Z,33.20
2018-06-28T07:52:13.231Z,33.40
2018-06-28T07:52:47.135Z,33.90
2018-06-28T07:53:20.145Z,34.00
2018-06-28T07:53:53.233Z,34.20
2018-06-28T07:54:26.375Z,33.90
2018-06-28T07:54:59.900Z,33.90
2018-06-28T07:55:32.963Z,33.60